Portada
METAR-TAF:

METAR-TAF

Aeropuertos :

New Century AirCenter

Olathe, Kansas, Estados Unidos

latitud: 38-49-28N, longitud: 094-53-13W, altitud: 331 m

Observación

El informe se hizo hace 1 hora y 4 minutos, a las 07:53 UTC
Viento 5 kt del sureste
Temperatura 23°C
Humedad 94%
Presión 1015 hPa
Visibilidad: 16.1 km
Cielo despejado

METAR: KIXD 060753Z AUTO 14005KT 10SM CLR 23/22 A2997 RMK AO2 SLP134 T02330217

Hora: 03:57 (08:57 UTC)

Pronóstico

El informe se hizo hace 3 horas y 37 minutos, a las 05:20 UTC
Pronóstico válido del 06 a las 06 UTC al 07 a las 06 UTC
Viento 5 kt del este-sureste
Visibilidad: 10 km
Cielo despejado
A partir de las 06 a las 1700 UTC
Viento 9 kt del sureste
Visibilidad: 10 km
Nubes dispersas a una altura de 4000 ft
A partir de las 07 a las 0100 UTC
Viento 9 kt del sureste
Visibilidad: 10 km
Cielo despejado

TAF: KIXD 060520Z 0606/0706 11005KT P6SM SKC FM061700 14009KT P6SM SCT040 FM070100 13009KT P6SM SKC

Observaciones y pronósticos meteorológicos de más de 4000 aeropuertos (mensajes METAR y TAF).

Los puntos amarillos y rojos representan las estaciones disponibles.

Ponga el ratón en el punto deseado para ver el nombre de la estación.

Haga clic para ver las observaciones y los pronósticos meteorológicos.

Para cambiar el mapa : haga clic en los botones verdes con una cruz de color negro para hacer un zoom, en el botón verde con un guión para alejar o en las flechas verdes para mapas adyacentes.


METAR-TAF: